Time;durP1;ratioP1;P1;durP2;ratioP2;P2;SDS_P1;SDS_P2;PMS_P1;PMS_P2;Temp;Humidity;BMP_temperature;BMP_pressure;BME280_temperature;BME280_humidity;BME280_pressure;Samples;Min_cycle;Max_cycle;Signal;HPM_P1;HPM_P2
2021/04/01 00:02:59;;;;;;;58.13;32.23;;;;;;;10.90;63.25;98908.14;237810;1199;23470;-68
2021/04/01 00:08:03;;;;;;;63.40;34.85;;;;;;;10.82;63.29;98900.73;238045;1202;23107;-67
2021/04/01 00:13:06;;;;;;;65.67;34.43;;;;;;;10.75;63.64;98907.22;237764;1198;23118;-69
2021/04/01 00:18:10;;;;;;;60.70;33.00;;;;;;;10.69;63.70;98900.34;237876;1200;25989;-68
2021/04/01 00:23:14;;;;;;;59.10;31.05;;;;;;;10.63;63.78;98892.64;237724;1202;23107;-68
2021/04/01 00:28:17;;;;;;;53.43;27.97;;;;;;;10.62;64.25;98889.17;238223;1200;23238;-68
2021/04/01 00:33:19;;;;;;;55.97;30.93;;;;;;;10.42;64.19;98856.17;238051;1200;26693;-69
2021/04/01 00:38:22;;;;;;;53.83;30.00;;;;;;;10.58;64.56;98882.78;237989;1198;23247;-68
2021/04/01 00:43:25;;;;;;;51.90;29.85;;;;;;;10.54;64.54;98879.08;237918;1199;23180;-68
2021/04/01 00:48:28;;;;;;;46.63;25.53;;;;;;;10.47;64.72;98867.91;238166;1199;23117;-69
2021/04/01 00:53:31;;;;;;;50.90;26.90;;;;;;;10.45;64.97;98868.20;237837;1200;23097;-69
2021/04/01 00:58:34;;;;;;;44.60;26.90;;;;;;;10.43;65.17;98865.00;238161;1199;23109;-69
2021/04/01 01:03:36;;;;;;;51.40;26.97;;;;;;;10.38;65.61;98857.01;237713;1201;23114;-67
2021/04/01 01:08:39;;;;;;;45.75;24.45;;;;;;;10.32;65.22;98850.88;238140;1200;23160;-68
2021/04/01 01:13:43;;;;;;;43.03;24.13;;;;;;;10.28;65.94;98844.50;237892;1200;23139;-68
2021/04/01 01:18:45;;;;;;;42.50;23.55;;;;;;;10.24;66.23;98841.61;237653;1200;23085;-68
2021/04/01 01:23:50;;;;;;;43.90;22.60;;;;;;;10.21;66.52;98831.48;237544;1199;23095;-68
2021/04/01 01:28:53;;;;;;;41.95;22.40;;;;;;;10.19;66.63;98824.80;237742;1202;23147;-68
2021/04/01 01:33:57;;;;;;;37.90;21.10;;;;;;;10.16;66.99;98825.38;237625;1201;23125;-69
2021/04/01 01:38:59;;;;;;;39.60;22.60;;;;;;;10.12;67.27;98816.32;237610;1202;23160;-69
2021/04/01 01:44:03;;;;;;;34.05;19.60;;;;;;;10.10;67.71;98812.04;237567;1200;23173;-67
2021/04/01 01:49:06;;;;;;;40.37;22.63;;;;;;;10.07;67.68;98807.26;237576;1199;23103;-68
2021/04/01 01:54:08;;;;;;;44.33;24.80;;;;;;;10.04;67.82;98807.02;237528;1199;23109;-68
2021/04/01 01:59:11;;;;;;;42.80;24.53;;;;;;;9.99;67.71;98801.70;237608;1199;23107;-69
2021/04/01 02:04:14;;;;;;;40.03;22.13;;;;;;;9.95;68.19;98801.49;237836;1198;23234;-69
2021/04/01 02:09:16;;;;;;;35.23;20.53;;;;;;;9.91;68.29;98787.88;237854;1200;24536;-68
2021/04/01 02:14:19;;;;;;;36.50;21.20;;;;;;;9.87;68.67;98794.08;237679;1200;23180;-68
2021/04/01 02:19:32;;;;;;;33.03;19.63;;;;;;;9.86;68.74;98784.45;238315;1200;23241;-68
2021/04/01 02:24:34;;;;;;;28.83;18.30;;;;;;;9.83;69.05;98777.00;237894;1200;23118;-69
2021/04/01 02:29:37;;;;;;;32.35;19.05;;;;;;;9.83;69.18;98772.43;237857;1201;26019;-69
2021/04/01 02:34:39;;;;;;;27.20;18.00;;;;;;;9.80;69.11;98774.89;237770;1198;23105;-68
2021/04/01 02:39:42;;;;;;;30.73;18.13;;;;;;;9.76;69.48;98775.47;237787;1200;23106;-67
2021/04/01 02:44:45;;;;;;;26.67;17.53;;;;;;;9.75;69.88;98770.38;237722;1200;23164;-68
2021/04/01 02:49:47;;;;;;;27.60;18.27;;;;;;;9.72;70.01;98762.91;237589;1200;23426;-68
2021/04/01 02:54:50;;;;;;;31.60;18.20;;;;;;;9.65;69.73;98763.23;238039;1200;23362;-68
2021/04/01 02:59:52;;;;;;;30.10;18.35;;;;;;;9.62;70.17;98763.81;237797;1200;23109;-68
2021/04/01 03:04:55;;;;;;;28.63;17.73;;;;;;;9.60;70.58;98763.31;237770;1200;23135;-68
2021/04/01 03:09:58;;;;;;;30.53;19.07;;;;;;;9.56;70.27;98756.92;237851;1200;23136;-68
2021/04/01 03:15:00;;;;;;;30.07;18.77;;;;;;;9.50;70.55;98758.85;237688;1199;23107;-68
2021/04/01 03:20:04;;;;;;;27.60;17.63;;;;;;;9.47;70.89;98748.72;238085;1199;23114;-68
2021/04/01 03:25:08;;;;;;;28.25;18.50;;;;;;;9.45;70.84;98750.08;238088;1199;23080;-68
2021/04/01 03:30:14;;;;;;;33.03;19.00;;;;;;;9.42;71.36;98749.55;237756;1199;23118;-69
2021/04/01 03:35:22;;;;;;;28.53;18.23;;;;;;;9.38;71.20;98748.52;238477;1202;24567;-67
2021/04/01 03:40:25;;;;;;;30.30;18.50;;;;;;;9.35;71.27;98734.92;237722;1200;23122;-69
2021/04/01 03:45:28;;;;;;;29.10;18.50;;;;;;;9.34;71.63;98733.32;237707;1200;26291;-69
2021/04/01 03:50:31;;;;;;;30.45;18.50;;;;;;;9.32;71.27;98730.94;237869;1200;23105;-68
2021/04/01 03:55:41;;;;;;;28.23;17.33;;;;;;;9.25;71.74;98723.23;237759;1200;23134;-69
2021/04/01 04:00:49;;;;;;;29.55;16.90;;;;;;;9.21;71.42;98716.06;238126;1199;23090;-68
2021/04/01 04:07:09;;;;;;;28.65;18.00;;;;;;;9.19;72.15;98723.55;238433;1198;23196;-69
2021/04/01 04:16:41;;;;;;;31.97;18.40;;;;;;;9.17;72.16;98712.35;238004;1198;23122;-69
2021/04/01 04:21:44;;;;;;;29.80;17.20;;;;;;;9.16;72.02;98702.73;238057;1199;23276;-68
2021/04/01 04:26:50;;;;;;;26.40;16.35;;;;;;;9.16;72.16;98705.41;237815;1199;23138;-69
2021/04/01 04:31:52;;;;;;;28.90;17.55;;;;;;;9.18;72.55;98701.38;237972;1200;23209;-69
2021/04/01 04:36:55;;;;;;;32.10;17.73;;;;;;;9.16;72.20;98695.50;238038;1200;23240;-67
2021/04/01 04:41:57;;;;;;;29.80;17.67;;;;;;;9.18;72.91;98687.23;238193;1199;23277;-69
2021/04/01 04:47:00;;;;;;;26.50;17.10;;;;;;;9.25;72.97;98687.70;238221;1200;23125;-68
2021/04/01 04:52:08;;;;;;;28.00;17.30;;;;;;;9.30;73.05;98684.95;238004;1200;23205;-67
2021/04/01 04:57:20;;;;;;;27.30;17.00;;;;;;;9.36;72.90;98683.03;238166;1202;23135;-68
2021/04/01 05:07:44;;;;;;;22.37;15.80;;;;;;;9.57;73.29;98680.97;238101;1200;23195;-68
2021/04/01 05:12:52;;;;;;;26.95;16.85;;;;;;;9.66;72.80;98679.25;238235;1202;23080;-68
2021/04/01 05:18:05;;;;;;;33.33;16.90;;;;;;;9.76;73.30;98681.83;238124;1199;23370;-69
2021/04/01 05:23:32;;;;;;;32.25;17.40;;;;;;;9.91;72.86;98680.05;238548;1200;23102;-69
2021/04/01 05:28:33;;;;;;;26.87;17.03;;;;;;;10.08;72.77;98680.36;238139;1200;23101;-69
2021/04/01 05:33:47;;;;;;;30.93;17.20;;;;;;;10.25;72.89;98673.73;238240;1199;23113;-69
2021/04/01 05:38:51;;;;;;;26.67;17.67;;;;;;;10.40;72.54;98673.55;237829;1199;23160;-69
2021/04/01 05:44:10;;;;;;;30.63;17.37;;;;;;;10.51;72.46;98676.89;237954;1200;23135;-69
2021/04/01 06:05:03;;;;;;;26.33;17.33;;;;;;;11.30;71.84;98664.64;237564;1199;23105;-69
2021/04/01 06:10:09;;;;;;;33.00;17.20;;;;;;;11.49;71.91;98661.89;239379;1198;23308;-69
2021/04/01 06:15:12;;;;;;;25.77;16.13;;;;;;;11.75;71.96;98670.26;237945;1199;23191;-69
2021/04/01 06:20:16;;;;;;;26.57;17.13;;;;;;;12.04;71.58;98663.78;237820;1200;23118;-68
2021/04/01 06:25:20;;;;;;;22.77;15.47;;;;;;;12.29;71.33;98661.66;237838;1200;23311;-68
2021/04/01 06:30:28;;;;;;;24.40;14.60;;;;;;;12.48;70.89;98662.31;237785;1200;23160;-67
2021/04/01 06:35:45;;;;;;;20.35;13.45;;;;;;;12.72;70.40;98660.41;238061;1202;23167;-68
2021/04/01 06:40:51;;;;;;;17.60;11.60;;;;;;;13.01;70.07;98668.05;238874;1199;23240;-67
2021/04/01 06:45:58;;;;;;;16.03;11.20;;;;;;;13.33;69.53;98666.99;241440;1199;23115;-68
2021/04/01 06:51:07;;;;;;;19.85;11.55;;;;;;;13.61;68.56;98660.63;237223;1199;23117;-68
2021/04/01 07:01:55;;;;;;;16.10;9.80;;;;;;;14.18;66.97;98657.14;238191;1202;23106;-68
2021/04/01 07:07:12;;;;;;;14.73;9.37;;;;;;;14.43;65.67;98647.50;237933;1202;23134;-68
2021/04/01 07:12:19;;;;;;;14.65;9.95;;;;;;;14.67;65.95;98633.56;237754;1201;23114;-68
2021/04/01 07:17:26;;;;;;;16.05;10.35;;;;;;;14.91;65.19;98636.88;237809;1200;23515;-68
2021/04/01 07:49:41;;;;;;;13.05;7.95;;;;;;;16.39;60.73;98609.14;238313;1200;23121;-68
2021/04/01 08:05:14;;;;;;;12.25;7.60;;;;;;;17.10;59.89;98603.89;237773;1199;23142;-69
2021/04/01 08:10:18;;;;;;;10.30;7.67;;;;;;;17.35;58.88;98610.13;238080;1200;26882;-68
2021/04/01 08:15:25;;;;;;;10.80;7.35;;;;;;;17.55;58.19;98605.72;237561;1202;23150;-68
2021/04/01 08:20:31;;;;;;;10.35;7.50;;;;;;;17.76;56.92;98612.95;237869;1200;27979;-68
2021/04/01 08:26:10;;;;;;;12.25;7.60;;;;;;;17.91;55.87;98606.08;237863;1199;23106;-68
2021/04/01 08:31:54;;;;;;;13.45;7.10;;;;;;;18.11;55.45;98593.50;237751;1199;26230;-68
2021/04/01 08:37:17;;;;;;;11.15;7.25;;;;;;;18.34;54.44;98584.84;237420;1198;28304;-68
2021/04/01 08:43:08;;;;;;;10.05;6.90;;;;;;;18.55;54.03;98590.88;237437;1200;23212;-69
2021/04/01 08:49:26;;;;;;;12.10;7.60;;;;;;;18.84;51.91;98588.91;237362;1200;23115;-68
2021/04/01 08:54:45;;;;;;;11.60;7.27;;;;;;;19.12;50.42;98571.80;237655;1202;23144;-69
2021/04/01 08:59:54;;;;;;;11.97;7.20;;;;;;;19.37;49.97;98563.48;238236;1200;23146;-69
2021/04/01 09:04:59;;;;;;;11.30;7.07;;;;;;;19.63;49.51;98566.41;237737;1202;23105;-70
2021/04/01 09:10:22;;;;;;;12.65;7.75;;;;;;;19.96;48.91;98558.98;238000;1203;23112;-69
2021/04/01 09:20:28;;;;;;;12.70;8.90;;;;;;;20.56;46.52;98560.56;240283;1201;23373;-69
2021/04/01 09:25:45;;;;;;;12.30;8.45;;;;;;;20.85;45.59;98548.28;237757;1201;23119;-68
2021/04/01 09:31:01;;;;;;;12.80;7.47;;;;;;;21.16;45.40;98552.68;239123;1200;23114;-68
2021/04/01 09:36:10;;;;;;;13.60;8.35;;;;;;;21.44;44.05;98545.33;237848;1200;24886;-68
2021/04/01 09:41:33;;;;;;;12.68;8.05;;;;;;;21.68;42.84;98552.31;237800;1200;23157;-69
2021/04/01 09:46:55;;;;;;;13.57;8.00;;;;;;;21.78;41.62;98537.27;238442;1200;24584;-67
2021/04/01 09:52:01;;;;;;;12.97;8.50;;;;;;;21.81;41.90;98525.61;238010;1200;23244;-68
2021/04/01 09:57:05;;;;;;;13.83;8.95;;;;;;;21.80;41.84;98524.06;237807;1200;26422;-69
2021/04/01 10:02:19;;;;;;;13.73;9.23;;;;;;;21.80;40.95;98518.61;239979;1202;23110;-70
2021/04/01 10:07:25;;;;;;;15.50;10.88;;;;;;;21.75;40.81;98510.75;237435;1202;23112;-68
2021/04/01 10:12:41;;;;;;;18.23;11.60;;;;;;;21.97;40.73;98507.13;238720;1197;23164;-67
2021/04/01 10:17:44;;;;;;;16.87;11.53;;;;;;;22.39;40.54;98508.80;237372;1200;23185;-67
2021/04/01 10:22:47;;;;;;;18.30;11.60;;;;;;;22.83;39.57;98498.28;237876;1200;23161;-67
2021/04/01 10:28:12;;;;;;;19.18;12.85;;;;;;;22.98;39.03;98489.04;237777;1202;23263;-67
2021/04/01 10:33:32;;;;;;;22.75;12.33;;;;;;;23.13;38.68;98481.78;239371;1199;23136;-67
2021/04/01 10:38:36;;;;;;;16.00;12.27;;;;;;;23.32;39.17;98475.27;237463;1200;23106;-67
2021/04/01 10:43:41;;;;;;;22.13;13.80;;;;;;;23.46;38.57;98473.77;244534;1200;23110;-66
2021/04/01 10:48:50;;;;;;;18.80;13.40;;;;;;;23.53;37.88;98468.34;239440;1200;23112;-68
2021/04/01 10:53:54;;;;;;;16.93;13.15;;;;;;;23.41;37.25;98448.38;237726;1200;23115;-68
2021/04/01 10:58:59;;;;;;;17.20;13.08;;;;;;;23.29;37.44;98448.69;238148;1200;23125;-69
2021/04/01 11:04:03;;;;;;;17.47;13.43;;;;;;;23.22;36.61;98446.72;237842;1200;23163;-68
2021/04/01 11:09:10;;;;;;;15.88;12.63;;;;;;;23.15;36.14;98446.65;240708;1202;23117;-67
2021/04/01 11:14:15;;;;;;;16.15;13.10;;;;;;;23.06;36.01;98437.99;238541;1198;26247;-67
2021/04/01 11:19:18;;;;;;;19.63;13.83;;;;;;;22.98;36.17;98439.88;238123;1201;23257;-67
2021/04/01 11:24:32;;;;;;;21.53;13.90;;;;;;;22.92;35.35;98438.68;237468;1200;23125;-67
2021/04/01 11:29:35;;;;;;;20.30;13.70;;;;;;;22.93;35.89;98433.98;237755;1200;23198;-66
2021/04/01 11:34:38;;;;;;;20.10;13.27;;;;;;;22.94;35.61;98438.30;237668;1202;23118;-67
2021/04/01 11:39:41;;;;;;;16.38;12.08;;;;;;;22.83;35.09;98438.20;237380;1199;26265;-69
2021/04/01 11:44:45;;;;;;;20.58;12.80;;;;;;;22.83;35.59;98430.02;238113;1199;23163;-69
2021/04/01 11:49:50;;;;;;;16.65;12.23;;;;;;;22.86;35.20;98423.79;237815;1199;23174;-69
2021/04/01 11:54:53;;;;;;;15.70;11.33;;;;;;;22.86;34.70;98423.79;237675;1201;23531;-67
2021/04/01 12:00:05;;;;;;;15.45;11.00;;;;;;;22.93;34.79;98423.87;237766;1200;23105;-67
2021/04/01 12:05:15;;;;;;;14.05;9.80;;;;;;;22.98;34.24;98420.77;240741;1202;23142;-67
2021/04/01 12:10:19;;;;;;;15.60;11.40;;;;;;;22.97;34.00;98416.48;237901;1200;23362;-67
2021/04/01 12:15:40;;;;;;;19.53;13.20;;;;;;;22.84;33.06;98409.75;238635;1199;23138;-67
2021/04/01 12:20:44;;;;;;;16.67;11.20;;;;;;;22.73;33.38;98412.39;238024;1199;23320;-67
2021/04/01 12:26:00;;;;;;;20.98;13.45;;;;;;;22.80;34.04;98406.20;238365;1200;23110;-68
2021/04/01 12:31:04;;;;;;;20.43;12.25;;;;;;;22.91;34.18;98396.14;245575;1199;22922;-68
2021/04/01 12:36:06;;;;;;;16.07;11.03;;;;;;;23.06;33.97;98397.02;238935;1199;26242;-67
2021/04/01 12:41:22;;;;;;;18.25;12.58;;;;;;;23.00;33.06;98393.06;237432;1203;23102;-67
2021/04/01 12:46:43;;;;;;;17.45;12.65;;;;;;;22.84;33.34;98385.95;245450;1198;22764;-67
2021/04/01 12:52:01;;;;;;;15.55;11.85;;;;;;;22.73;33.43;98383.16;239907;1200;23135;-68
2021/04/01 12:57:10;;;;;;;16.67;12.23;;;;;;;22.65;33.90;98370.63;239061;1201;23105;-67
2021/04/01 13:02:21;;;;;;;21.68;12.08;;;;;;;22.59;33.44;98382.27;237918;1202;23108;-69
2021/04/01 13:12:31;;;;;;;15.38;11.65;;;;;;;22.46;33.67;98357.99;237565;1200;23112;-68
2021/04/01 13:17:34;;;;;;;18.10;12.75;;;;;;;22.46;33.72;98357.99;238501;1200;23558;-68
2021/04/01 13:28:05;;;;;;;18.20;12.98;;;;;;;22.49;34.24;98357.23;238252;1199;23134;-68
2021/04/01 13:34:12;;;;;;;18.90;13.55;;;;;;;22.49;34.88;98351.00;238052;1202;24069;-69
2021/04/01 13:38:42;;;;;;;20.03;14.05;;;;;;;22.47;34.75;98347.85;237626;1199;23109;-69
2021/04/01 13:43:44;;;;;;;19.95;13.80;;;;;;;22.45;34.52;98344.73;238881;1200;23119;-68
2021/04/01 13:48:49;;;;;;;18.10;12.48;;;;;;;22.39;33.57;98342.34;238346;1202;23114;-68
2021/04/01 14:09:35;;;;;;;20.52;13.00;;;;;;;21.95;34.22;98323.23;237803;1200;23194;-68
2021/04/01 14:14:39;;;;;;;20.30;13.20;;;;;;;21.82;34.59;98314.55;238205;1199;23109;-69
2021/04/01 14:19:43;;;;;;;17.20;11.65;;;;;;;21.65;33.77;98322.16;237999;1202;23525;-68
2021/04/01 14:24:51;;;;;;;18.03;11.37;;;;;;;21.46;33.39;98311.41;238158;1200;23075;-69
2021/04/01 14:29:57;;;;;;;18.80;11.93;;;;;;;21.27;34.09;98307.70;238030;1199;23112;-69
2021/04/01 14:35:03;;;;;;;21.85;13.20;;;;;;;21.15;34.43;98305.22;238131;1200;23340;-69
2021/04/01 14:40:08;;;;;;;22.93;13.93;;;;;;;21.00;35.26;98294.16;238232;1199;23105;-68
2021/04/01 14:45:12;;;;;;;20.35;13.55;;;;;;;20.90;35.34;98300.26;238284;1199;23426;-68
2021/04/01 14:50:16;;;;;;;18.27;12.07;;;;;;;20.80;35.53;98298.96;237965;1202;23105;-68
2021/04/01 14:55:19;;;;;;;15.67;10.17;;;;;;;20.66;35.23;98304.16;238184;1202;23160;-68
2021/04/01 15:00:23;;;;;;;15.27;10.13;;;;;;;20.50;34.17;98321.42;238045;1202;23237;-69
2021/04/01 15:05:27;;;;;;;16.67;10.83;;;;;;;20.32;33.73;98309.48;238071;1199;23101;-69
2021/04/01 15:10:31;;;;;;;16.50;10.90;;;;;;;20.16;34.02;98315.85;238309;1201;23109;-68
2021/04/01 15:15:35;;;;;;;19.90;11.95;;;;;;;19.96;34.49;98303.46;238222;1202;23125;-69
2021/04/01 15:20:37;;;;;;;20.65;11.65;;;;;;;19.73;34.99;98306.16;238167;1202;23109;-69
2021/04/01 15:25:40;;;;;;;20.05;10.95;;;;;;;19.44;34.81;98297.45;238523;1200;23125;-68
2021/04/01 15:30:44;;;;;;;19.67;11.47;;;;;;;19.16;34.58;98301.19;238477;1201;23105;-68
2021/04/01 15:35:48;;;;;;;18.60;11.87;;;;;;;18.94;35.31;98310.80;238178;1202;23320;-69
2021/04/01 15:40:50;;;;;;;16.50;11.30;;;;;;;18.77;36.35;98306.54;238318;1200;23242;-69
2021/04/01 15:45:54;;;;;;;21.75;12.50;;;;;;;18.55;37.76;98319.64;238037;1203;23172;-68
2021/04/01 15:50:59;;;;;;;22.60;13.00;;;;;;;18.15;38.87;98306.29;238069;1202;23112;-69
2021/04/01 15:56:03;;;;;;;21.00;13.00;;;;;;;17.89;39.12;98316.48;238328;1200;23132;-69
2021/04/01 16:01:08;;;;;;;21.40;13.80;;;;;;;17.78;39.47;98318.09;238181;1198;23114;-69
2021/04/01 16:06:10;;;;;;;24.00;14.10;;;;;;;17.71;39.93;98312.49;238434;1200;23134;-68
2021/04/01 16:11:14;;;;;;;23.50;13.93;;;;;;;17.65;40.49;98327.44;237992;1199;23197;-69
2021/04/01 16:16:18;;;;;;;22.60;14.30;;;;;;;17.58;40.82;98325.31;238125;1199;26185;-69
2021/04/01 16:21:21;;;;;;;22.40;14.80;;;;;;;17.51;41.38;98315.07;239011;1198;23124;-68
2021/04/01 16:26:27;;;;;;;26.95;14.95;;;;;;;17.47;41.66;98318.83;238334;1200;23561;-70
2021/04/01 16:31:31;;;;;;;31.25;16.40;;;;;;;17.37;41.89;98315.47;237838;1200;23167;-69
2021/04/01 16:36:35;;;;;;;24.20;14.95;;;;;;;17.29;42.22;98319.10;238351;1202;23108;-69
2021/04/01 16:41:39;;;;;;;23.95;14.55;;;;;;;17.16;42.60;98318.36;238261;1202;23345;-69
2021/04/01 16:46:42;;;;;;;23.60;14.20;;;;;;;16.99;43.03;98322.13;238057;1200;23107;-69
2021/04/01 16:51:51;;;;;;;23.75;14.45;;;;;;;16.84;43.26;98320.11;238313;1200;23368;-69
2021/04/01 16:56:54;;;;;;;28.10;14.85;;;;;;;16.65;43.73;98321.48;238281;1199;23113;-69
2021/04/01 17:01:57;;;;;;;26.60;15.30;;;;;;;16.48;44.48;98332.52;238135;1200;23111;-69
2021/04/01 17:07:00;;;;;;;24.40;15.00;;;;;;;16.30;44.53;98331.95;238184;1199;23111;-69
2021/04/01 17:12:06;;;;;;;24.05;14.45;;;;;;;16.16;44.61;98335.78;238282;1200;23131;-68
2021/04/01 17:17:08;;;;;;;25.95;14.50;;;;;;;16.04;45.03;98333.84;238115;1199;23550;-69
2021/04/01 17:22:11;;;;;;;26.60;15.40;;;;;;;15.90;44.88;98339.55;238102;1200;23101;-68
2021/04/01 17:27:15;;;;;;;24.80;15.33;;;;;;;15.81;45.02;98340.76;238273;1200;23241;-69
2021/04/01 17:32:17;;;;;;;28.27;14.67;;;;;;;15.71;45.47;98344.64;237977;1200;23128;-69
2021/04/01 17:37:20;;;;;;;25.10;15.23;;;;;;;15.62;45.24;98344.73;238238;1200;23362;-69
2021/04/01 17:42:22;;;;;;;25.55;15.25;;;;;;;15.53;45.52;98350.21;238085;1197;23117;-69
2021/04/01 17:47:27;;;;;;;27.80;15.60;;;;;;;15.44;45.63;98362.98;238300;1201;23083;-68
2021/04/01 17:52:30;;;;;;;28.65;17.60;;;;;;;15.37;46.13;98381.63;237941;1199;23115;-69
2021/04/01 17:57:34;;;;;;;27.95;16.95;;;;;;;15.31;46.25;98366.76;237956;1201;23211;-69
2021/04/01 18:02:40;;;;;;;25.83;15.30;;;;;;;15.23;46.50;98371.90;238101;1200;23105;-67
2021/04/01 18:34:04;;;;;;;24.30;14.45;;;;;;;14.73;47.75;98407.71;237949;1199;23109;-69
2021/04/01 18:44:13;;;;;;;24.80;14.90;;;;;;;14.64;47.84;98415.84;238324;1202;25981;-69
2021/04/01 18:49:53;;;;;;;28.23;15.90;;;;;;;14.62;47.91;98422.64;238116;1198;23105;-69
2021/04/01 19:00:00;;;;;;;30.07;16.10;;;;;;;14.51;48.79;98414.14;238032;1200;23112;-69
2021/04/01 19:05:27;;;;;;;27.13;15.13;;;;;;;14.43;49.22;98415.73;238205;1202;23131;-69
2021/04/01 19:26:30;;;;;;;26.00;16.50;;;;;;;14.13;50.03;98431.84;238056;1200;23137;-69
2021/04/01 19:31:34;;;;;;;24.95;14.75;;;;;;;14.06;50.33;98436.92;237904;1200;23130;-68
2021/04/01 19:36:38;;;;;;;49.23;31.27;;;;;;;13.98;50.89;98449.28;238276;1200;23177;-69
2021/04/01 19:42:11;;;;;;;18.80;12.70;;;;;;;13.92;50.96;98460.52;238124;1202;23129;-69
2021/04/01 19:47:15;;;;;;;15.75;9.60;;;;;;;13.86;51.09;98457.20;238199;1202;23116;-69
2021/04/01 19:52:18;;;;;;;16.90;8.60;;;;;;;13.81;51.02;98446.61;238128;1200;23109;-69
2021/04/01 19:57:21;;;;;;;17.10;7.75;;;;;;;13.74;51.14;98447.08;238284;1200;23119;-69
2021/04/01 20:02:25;;;;;;;13.55;7.45;;;;;;;13.66;51.77;98437.88;238458;1200;23104;-68
2021/04/01 20:07:28;;;;;;;12.10;7.15;;;;;;;13.57;51.87;98439.80;238058;1200;23119;-69
2021/04/01 20:12:31;;;;;;;13.85;7.40;;;;;;;13.48;52.21;98447.84;238554;1200;23132;-68
2021/04/01 20:17:35;;;;;;;14.25;6.00;;;;;;;13.39;52.57;98448.94;237991;1199;24837;-68
2021/04/01 20:22:41;;;;;;;10.70;6.20;;;;;;;13.28;52.96;98438.47;238104;1200;23134;-69
2021/04/01 20:27:45;;;;;;;11.50;5.30;;;;;;;13.18;53.32;98431.48;238137;1200;23109;-69
2021/04/01 20:32:49;;;;;;;9.20;5.03;;;;;;;13.10;53.41;98418.03;237985;1200;26320;-68
2021/04/01 20:37:53;;;;;;;9.63;5.97;;;;;;;13.05;53.78;98424.33;238124;1200;23240;-68
2021/04/01 20:42:56;;;;;;;12.37;5.87;;;;;;;13.00;53.67;98436.03;238005;1199;23111;-69
2021/04/01 20:47:59;;;;;;;11.90;5.55;;;;;;;12.96;54.06;98440.45;238157;1199;23135;-69
2021/04/01 20:53:04;;;;;;;12.00;6.10;;;;;;;12.89;54.55;98447.39;238064;1202;23224;-68
2021/04/01 20:58:07;;;;;;;9.45;6.10;;;;;;;12.83;54.71;98446.75;238226;1200;23121;-69
2021/04/01 21:03:11;;;;;;;9.00;5.30;;;;;;;12.76;54.96;98449.88;238138;1202;23352;-68
2021/04/01 21:08:17;;;;;;;11.40;5.60;;;;;;;12.71;55.15;98446.53;238066;1200;23124;-68
2021/04/01 21:13:20;;;;;;;9.90;4.80;;;;;;;12.66;55.47;98440.20;238440;1200;23198;-69
2021/04/01 21:18:26;;;;;;;10.00;4.90;;;;;;;12.62;55.53;98449.19;238059;1203;23308;-69
2021/04/01 21:23:30;;;;;;;11.90;4.87;;;;;;;12.57;55.74;98442.04;238318;1202;26910;-68
2021/04/01 21:28:34;;;;;;;8.70;5.00;;;;;;;12.53;55.64;98426.86;238593;1200;23230;-69
2021/04/01 21:33:40;;;;;;;9.13;4.93;;;;;;;12.41;56.12;98422.05;238397;1200;23200;-68
2021/04/01 21:38:43;;;;;;;12.40;6.25;;;;;;;12.27;56.01;98412.20;238402;1200;27276;-69
2021/04/01 21:43:46;;;;;;;12.75;5.35;;;;;;;12.15;56.97;98425.39;238026;1202;23113;-70
2021/04/01 21:48:49;;;;;;;14.60;6.00;;;;;;;12.05;57.09;98426.44;238150;1199;23156;-69
2021/04/01 21:53:51;;;;;;;12.70;6.23;;;;;;;12.04;57.89;98422.16;238070;1200;23150;-69
2021/04/01 21:58:54;;;;;;;12.67;6.40;;;;;;;12.06;57.90;98427.22;238218;1199;23222;-68
2021/04/01 22:03:56;;;;;;;12.33;6.97;;;;;;;12.06;57.98;98429.91;237978;1200;23557;-68
2021/04/01 22:08:59;;;;;;;15.17;6.80;;;;;;;12.06;58.17;98428.03;237907;1199;28414;-68
2021/04/01 22:14:02;;;;;;;14.20;8.20;;;;;;;12.04;58.55;98421.38;238007;1198;23114;-68
2021/04/01 22:19:05;;;;;;;14.87;7.57;;;;;;;11.99;58.40;98422.31;237994;1199;23179;-69
2021/04/01 22:24:08;;;;;;;21.45;8.75;;;;;;;11.95;58.78;98421.33;238096;1198;26448;-69
2021/04/01 22:29:11;;;;;;;29.60;13.15;;;;;;;11.89;58.83;98414.45;237928;1199;23081;-69
2021/04/01 22:34:14;;;;;;;27.90;13.20;;;;;;;11.87;59.21;98427.41;237932;1198;23121;-68
2021/04/01 22:39:17;;;;;;;26.83;13.20;;;;;;;11.88;59.25;98429.78;238200;1200;23114;-69
2021/04/01 22:44:19;;;;;;;23.30;9.83;;;;;;;11.89;59.39;98427.88;238252;1199;23282;-68
2021/04/01 22:49:22;;;;;;;19.17;9.13;;;;;;;11.89;59.24;98433.24;238143;1200;23112;-69
2021/04/01 22:54:25;;;;;;;18.20;8.20;;;;;;;11.89;59.29;98422.51;237768;1200;23111;-69
2021/04/01 22:59:28;;;;;;;17.43;8.10;;;;;;;11.83;58.71;98427.20;238117;1200;23106;-69
2021/04/01 23:04:30;;;;;;;14.65;6.95;;;;;;;11.77;58.86;98415.02;238356;1199;23129;-69
2021/04/01 23:09:33;;;;;;;19.23;7.23;;;;;;;11.66;59.15;98409.09;238158;1200;23122;-69
2021/04/01 23:14:36;;;;;;;14.93;6.77;;;;;;;11.57;59.87;98417.08;238252;1202;26045;-69
2021/04/01 23:19:39;;;;;;;11.07;5.33;;;;;;;11.55;59.72;98429.20;238481;1200;23122;-69
2021/04/01 23:24:41;;;;;;;12.87;6.17;;;;;;;11.52;60.32;98430.59;237988;1202;23212;-69
2021/04/01 23:29:44;;;;;;;12.95;5.50;;;;;;;11.45;60.48;98431.00;238047;1199;23112;-69
2021/04/01 23:34:46;;;;;;;15.47;4.97;;;;;;;11.41;61.12;98443.43;238249;1199;23169;-69
2021/04/01 23:39:49;;;;;;;15.05;5.00;;;;;;;11.38;61.37;98453.98;237830;1200;23113;-68
2021/04/01 23:44:52;;;;;;;14.60;5.35;;;;;;;11.36;61.76;98454.29;237919;1200;23105;-69
2021/04/01 23:49:54;;;;;;;15.07;5.73;;;;;;;11.35;61.79;98458.06;238117;1199;23132;-69
2021/04/01 23:54:57;;;;;;;13.60;5.95;;;;;;;11.31;62.39;98454.39;238202;1200;23138;-69
2021/04/01 23:59:59;;;;;;;13.20;6.33;;;;;;;11.16;63.68;98454.70;237945;1200;23113;-69
